createdAt,value
2018-04-15T00:00:37.430Z,0
2018-04-15T00:01:37.359Z,0
2018-04-15T00:02:37.433Z,0
2018-04-15T00:03:37.432Z,0
2018-04-15T00:04:37.436Z,0
2018-04-15T00:05:37.431Z,0
2018-04-15T00:06:37.440Z,0
2018-04-15T00:07:37.357Z,0
2018-04-15T00:08:37.456Z,0
2018-04-15T00:09:37.411Z,0
2018-04-15T00:10:37.355Z,0
2018-04-15T00:11:37.434Z,0
2018-04-15T00:12:37.440Z,0
2018-04-15T00:13:37.356Z,0
2018-04-15T00:14:37.415Z,0
2018-04-15T00:15:37.412Z,0
2018-04-15T00:16:37.365Z,0
2018-04-15T00:17:37.417Z,0
2018-04-15T00:18:37.499Z,0
2018-04-15T00:19:37.437Z,0
2018-04-15T00:20:37.440Z,0
2018-04-15T00:21:37.444Z,0
2018-04-15T00:22:37.368Z,0
2018-04-15T00:23:37.456Z,0
2018-04-15T00:24:37.436Z,0
2018-04-15T00:25:37.364Z,0
2018-04-15T00:26:37.368Z,0
2018-04-15T00:27:37.370Z,0
2018-04-15T00:28:37.444Z,0
2018-04-15T00:29:37.370Z,0
2018-04-15T00:30:37.371Z,0
2018-04-15T00:31:37.442Z,0
2018-04-15T00:32:37.445Z,0
2018-04-15T00:33:37.370Z,0
2018-04-15T00:34:37.452Z,0
2018-04-15T00:35:37.384Z,0
2018-04-15T00:36:37.381Z,0
2018-04-15T00:37:37.460Z,0
2018-04-15T00:38:37.460Z,0
2018-04-15T00:39:37.458Z,0
2018-04-15T00:40:37.458Z,0
2018-04-15T00:41:37.460Z,0
2018-04-15T00:42:37.384Z,0
2018-04-15T00:43:37.466Z,0
2018-04-15T00:44:37.456Z,0
2018-04-15T00:45:37.430Z,0
2018-04-15T00:46:37.381Z,0
2018-04-15T00:47:37.521Z,0
2018-04-15T00:48:37.455Z,0
2018-04-15T00:49:37.455Z,0
2018-04-15T00:50:37.491Z,0
2018-04-15T00:51:37.458Z,0
2018-04-15T00:52:37.464Z,0
2018-04-15T00:53:37.498Z,0
2018-04-15T00:54:37.434Z,0
2018-04-15T00:55:37.493Z,0
2018-04-15T00:56:37.381Z,0
2018-04-15T00:57:37.467Z,0
2018-04-15T00:58:37.483Z,0
2018-04-15T00:59:37.493Z,0
2018-04-15T01:00:37.431Z,0
2018-04-15T01:01:37.473Z,0
2018-04-15T01:02:37.392Z,0
2018-04-15T01:03:37.391Z,0
2018-04-15T01:04:37.400Z,0
2018-04-15T01:05:37.398Z,0
2018-04-15T01:06:37.401Z,0
2018-04-15T01:07:37.402Z,0
2018-04-15T01:08:37.515Z,0
2018-04-15T01:09:37.445Z,0
2018-04-15T01:10:37.405Z,0
2018-04-15T01:11:37.477Z,0
2018-04-15T01:12:37.499Z,0
2018-04-15T01:13:37.408Z,0
2018-04-15T01:14:37.425Z,0
2018-04-15T01:15:37.416Z,0
2018-04-15T01:16:37.371Z,0
2018-04-15T01:17:37.425Z,0
2018-04-15T01:18:37.483Z,0
2018-04-15T01:19:37.482Z,0
2018-04-15T01:20:37.409Z,0
2018-04-15T01:21:37.411Z,0
2018-04-15T01:22:37.413Z,0
2018-04-15T01:23:37.486Z,0
2018-04-15T01:24:37.475Z,0
2018-04-15T01:25:37.409Z,0
2018-04-15T01:26:37.365Z,0
2018-04-15T01:27:37.405Z,0
2018-04-15T01:28:37.478Z,0
2018-04-15T01:29:37.408Z,0
2018-04-15T01:30:37.477Z,0
2018-04-15T01:31:37.407Z,0
2018-04-15T01:32:37.409Z,0
2018-04-15T01:33:37.480Z,0
2018-04-15T01:34:37.378Z,0
2018-04-15T01:35:37.518Z,0
2018-04-15T01:36:37.489Z,0
2018-04-15T01:37:37.422Z,0
2018-04-15T01:38:37.495Z,0
2018-04-15T01:39:37.449Z,0
2018-04-15T01:40:37.499Z,0
2018-04-15T01:41:37.437Z,0
2018-04-15T01:42:37.384Z,0
2018-04-15T01:43:37.423Z,0
2018-04-15T01:44:37.429Z,0
2018-04-15T01:45:37.427Z,0
2018-04-15T01:46:37.427Z,0
2018-04-15T01:47:37.427Z,0
2018-04-15T01:48:37.444Z,0
2018-04-15T01:49:37.506Z,0
2018-04-15T01:50:37.501Z,0
2018-04-15T01:51:37.508Z,0
2018-04-15T01:52:37.432Z,0
2018-04-15T01:53:37.628Z,0
2018-04-15T01:54:37.503Z,0
2018-04-15T01:55:37.445Z,0
2018-04-15T01:56:37.507Z,0
2018-04-15T01:57:37.434Z,0
2018-04-15T01:58:37.510Z,0
2018-04-15T01:59:37.478Z,0
2018-04-15T02:00:37.606Z,0
2018-04-15T02:01:37.439Z,0
2018-04-15T02:02:37.453Z,0
2018-04-15T02:03:37.511Z,0
2018-04-15T02:04:37.506Z,0
2018-04-15T02:05:37.506Z,0
2018-04-15T02:06:37.503Z,0
2018-04-15T02:07:37.447Z,0
2018-04-15T02:08:37.486Z,0
2018-04-15T02:09:37.445Z,0
2018-04-15T02:10:37.511Z,0
2018-04-15T02:11:37.448Z,0
2018-04-15T02:12:37.509Z,0
2018-04-15T02:13:37.449Z,0
2018-04-15T02:14:37.401Z,0
2018-04-15T02:15:37.533Z,0
2018-04-15T02:16:37.444Z,0
2018-04-15T02:17:37.445Z,0
2018-04-15T02:18:37.521Z,0
2018-04-15T02:19:37.544Z,0
2018-04-15T02:20:37.449Z,0
2018-04-15T02:21:37.573Z,0
2018-04-15T02:22:37.522Z,0
2018-04-15T02:23:37.451Z,0
2018-04-15T02:24:37.449Z,0
2018-04-15T02:25:37.453Z,0
2018-04-15T02:26:37.530Z,0
2018-04-15T02:27:37.454Z,0
2018-04-15T02:28:37.529Z,0
2018-04-15T02:29:37.461Z,0
2018-04-15T02:30:37.458Z,0
2018-04-15T02:31:37.547Z,0
2018-04-15T02:32:37.453Z,0
2018-04-15T02:33:37.458Z,0
2018-04-15T02:34:37.565Z,0
2018-04-15T02:35:37.530Z,0
2018-04-15T02:36:37.584Z,0
2018-04-15T02:37:37.456Z,0
2018-04-15T02:38:37.568Z,0
2018-04-15T02:39:37.527Z,0
2018-04-15T02:40:37.527Z,0
2018-04-15T02:41:37.562Z,0
2018-04-15T02:42:37.540Z,0
2018-04-15T02:43:37.562Z,0
2018-04-15T02:44:37.527Z,0
2018-04-15T02:45:37.461Z,0
2018-04-15T02:46:37.461Z,0
2018-04-15T02:47:37.546Z,0
2018-04-15T02:48:37.463Z,0
2018-04-15T02:49:37.542Z,0
2018-04-15T02:50:37.461Z,0
2018-04-15T02:51:37.531Z,0
2018-04-15T02:52:37.459Z,0
2018-04-15T02:53:37.531Z,0
2018-04-15T02:54:37.540Z,0
2018-04-15T02:55:37.477Z,0
2018-04-15T02:56:37.442Z,0
2018-04-15T02:57:37.564Z,0
2018-04-15T02:58:37.571Z,0
2018-04-15T02:59:37.540Z,0
2018-04-15T03:00:37.555Z,0
2018-04-15T03:01:37.545Z,0
2018-04-15T03:02:37.611Z,0
2018-04-15T03:03:37.587Z,0
2018-04-15T03:04:37.554Z,0
2018-04-15T03:05:37.480Z,0
2018-04-15T03:06:37.556Z,0
2018-04-15T03:07:37.554Z,0
2018-04-15T03:08:37.497Z,0
2018-04-15T03:09:37.554Z,0
2018-04-15T03:10:37.557Z,0
2018-04-15T03:11:37.479Z,0
2018-04-15T03:12:37.556Z,0
2018-04-15T03:13:37.499Z,0
2018-04-15T03:14:37.547Z,0
2018-04-15T03:15:37.581Z,0
2018-04-15T03:16:37.529Z,0
2018-04-15T03:17:37.612Z,0
2018-04-15T03:18:37.555Z,0
2018-04-15T03:19:37.552Z,0
2018-04-15T03:20:37.536Z,0
2018-04-15T03:21:37.553Z,0
2018-04-15T03:22:37.527Z,0
2018-04-15T03:23:37.482Z,0
2018-04-15T03:24:37.581Z,0
2018-04-15T03:25:37.592Z,0
2018-04-15T03:26:37.556Z,0
2018-04-15T03:27:37.524Z,0
2018-04-15T03:28:37.496Z,0
2018-04-15T03:29:37.465Z,0
2018-04-15T03:30:37.484Z,0
2018-04-15T03:31:37.530Z,0
2018-04-15T03:32:37.590Z,0
2018-04-15T03:33:37.528Z,0
2018-04-15T03:34:37.623Z,0
2018-04-15T03:35:37.534Z,0
2018-04-15T03:36:37.545Z,0
2018-04-15T03:37:37.626Z,0
2018-04-15T03:38:37.534Z,0
2018-04-15T03:39:37.602Z,0
2018-04-15T03:40:37.628Z,0
2018-04-15T03:41:37.595Z,0
2018-04-15T03:42:37.473Z,0
2018-04-15T03:43:37.698Z,0
2018-04-15T03:44:37.575Z,0
2018-04-15T03:45:37.575Z,0
2018-04-15T03:46:37.500Z,0
2018-04-15T03:47:37.511Z,0
2018-04-15T03:48:37.579Z,0
2018-04-15T03:49:37.502Z,0
2018-04-15T03:50:37.579Z,0
2018-04-15T03:51:37.550Z,0
2018-04-15T03:52:37.511Z,0
2018-04-15T03:53:37.507Z,0
2018-04-15T03:54:37.507Z,0
2018-04-15T03:55:37.548Z,0
2018-04-15T03:56:37.507Z,0
2018-04-15T03:57:37.590Z,0
2018-04-15T03:58:37.632Z,4
2018-04-15T03:59:37.647Z,4
2018-04-15T04:00:37.585Z,4
2018-04-15T04:01:37.527Z,0
2018-04-15T04:02:37.584Z,4
2018-04-15T04:03:37.524Z,4
2018-04-15T04:04:37.610Z,8
2018-04-15T04:05:37.607Z,4
2018-04-15T04:06:37.582Z,8
2018-04-15T04:07:37.641Z,8
2018-04-15T04:08:37.645Z,12
2018-04-15T04:09:37.644Z,12
2018-04-15T04:10:37.643Z,16
2018-04-15T04:11:37.585Z,20
2018-04-15T04:12:37.649Z,24
2018-04-15T04:13:37.608Z,24
2018-04-15T04:14:37.714Z,32
2018-04-15T04:15:37.554Z,36
2018-04-15T04:16:37.605Z,44
2018-04-15T04:17:37.614Z,48
2018-04-15T04:18:37.525Z,56
2018-04-15T04:19:37.523Z,68
2018-04-15T04:20:37.591Z,72
2018-04-15T04:21:37.618Z,84
2018-04-15T04:22:37.592Z,96
2018-04-15T04:23:37.594Z,108
2018-04-15T04:24:37.606Z,112
2018-04-15T04:25:37.526Z,128
2018-04-15T04:26:37.603Z,136
2018-04-15T04:27:37.498Z,160
2018-04-15T04:28:37.531Z,172
2018-04-15T04:29:37.601Z,180
2018-04-15T04:30:37.529Z,188
2018-04-15T04:31:37.603Z,200
2018-04-15T04:32:37.533Z,212
2018-04-15T04:33:37.529Z,220
2018-04-15T04:34:37.504Z,236
2018-04-15T04:35:37.666Z,248
2018-04-15T04:36:37.518Z,256
2018-04-15T04:37:37.640Z,272
2018-04-15T04:38:37.663Z,296
2018-04-15T04:39:37.611Z,324
2018-04-15T04:40:37.609Z,356
2018-04-15T04:41:37.582Z,392
2018-04-15T04:42:37.628Z,436
2018-04-15T04:43:37.568Z,480
2018-04-15T04:44:37.557Z,516
2018-04-15T04:45:37.529Z,540
2018-04-15T04:46:37.500Z,572
2018-04-15T04:47:37.576Z,600
2018-04-15T04:48:37.470Z,632
2018-04-15T04:49:37.530Z,660
2018-04-15T04:50:37.570Z,684
2018-04-15T04:51:37.475Z,716
2018-04-15T04:52:37.473Z,752
2018-04-15T04:53:37.566Z,796
2018-04-15T04:54:37.560Z,840
2018-04-15T04:55:37.621Z,880
2018-04-15T04:56:37.621Z,920
2018-04-15T04:57:37.512Z,952
2018-04-15T04:58:37.549Z,992
2018-04-15T04:59:37.634Z,1044
2018-04-15T05:00:37.510Z,1092
2018-04-15T05:01:37.578Z,1144
2018-04-15T05:02:37.626Z,1200
2018-04-15T05:03:37.551Z,1256
2018-04-15T05:04:37.596Z,1320
2018-04-15T05:05:37.650Z,1384
2018-04-15T05:06:37.547Z,1452
2018-04-15T05:07:37.608Z,1500
2018-04-15T05:08:37.541Z,1540
2018-04-15T05:09:37.598Z,1560
2018-04-15T05:10:37.528Z,1596
2018-04-15T05:11:37.546Z,1660
2018-04-15T05:12:37.681Z,1748
2018-04-15T05:13:37.627Z,1864
2018-04-15T05:14:37.557Z,1988
2018-04-15T05:15:37.527Z,2092
2018-04-15T05:16:37.618Z,2180
2018-04-15T05:17:37.532Z,2252
2018-04-15T05:18:37.520Z,2304
2018-04-15T05:19:37.608Z,2372
2018-04-15T05:20:37.568Z,2436
2018-04-15T05:21:37.564Z,2504
2018-04-15T05:22:37.529Z,2560
2018-04-15T05:23:37.525Z,2608
2018-04-15T05:24:37.615Z,2640
2018-04-15T05:25:37.609Z,2676
2018-04-15T05:26:37.598Z,2716
2018-04-15T05:27:37.594Z,2764
2018-04-15T05:28:37.632Z,2824
2018-04-15T05:29:37.635Z,2876
2018-04-15T05:30:37.664Z,2932
2018-04-15T05:31:37.633Z,2976
2018-04-15T05:32:37.668Z,3020
2018-04-15T05:33:37.616Z,3072
2018-04-15T05:34:37.653Z,3104
2018-04-15T05:35:37.667Z,3124
2018-04-15T05:36:37.668Z,3136
2018-04-15T05:37:37.677Z,3164
2018-04-15T05:38:37.670Z,3232
2018-04-15T05:39:37.614Z,3328
2018-04-15T05:40:37.582Z,3440
2018-04-15T05:41:37.614Z,3552
2018-04-15T05:42:37.546Z,3632
2018-04-15T05:43:37.585Z,3684
2018-04-15T05:44:37.620Z,3712
2018-04-15T05:45:37.625Z,3720
2018-04-15T05:46:37.672Z,3712
2018-04-15T05:47:37.665Z,3680
2018-04-15T05:48:37.680Z,3652
2018-04-15T05:49:37.643Z,3620
2018-04-15T05:50:37.570Z,3576
2018-04-15T05:51:37.674Z,3544
2018-04-15T05:52:37.683Z,3524
2018-04-15T05:53:37.564Z,3508
2018-04-15T05:54:37.605Z,3504
2018-04-15T05:55:37.641Z,3512
2018-04-15T05:56:37.691Z,3524
2018-04-15T05:57:37.555Z,3548
2018-04-15T05:58:37.620Z,3684
2018-04-15T05:59:37.631Z,3664
2018-04-15T06:00:37.674Z,3736
2018-04-15T06:01:37.693Z,3812
2018-04-15T06:02:37.670Z,3884
2018-04-15T06:03:37.628Z,3968
2018-04-15T06:04:37.682Z,4072
2018-04-15T06:05:37.660Z,4184
2018-04-15T06:06:37.659Z,4304
2018-04-15T06:07:37.589Z,4432
2018-04-15T06:08:37.668Z,4556
2018-04-15T06:09:37.654Z,4700
2018-04-15T06:10:37.590Z,4856
2018-04-15T06:11:37.591Z,5024
2018-04-15T06:12:37.687Z,5172
2018-04-15T06:13:37.592Z,5340
2018-04-15T06:14:37.665Z,5544
2018-04-15T06:15:37.597Z,5760
2018-04-15T06:16:37.691Z,6000
2018-04-15T06:17:37.726Z,6244
2018-04-15T06:18:37.704Z,6456
2018-04-15T06:19:37.698Z,6676
2018-04-15T06:20:37.583Z,6964
2018-04-15T06:21:37.709Z,7080
2018-04-15T06:22:37.639Z,7316
2018-04-15T06:23:37.648Z,7492
2018-04-15T06:24:37.637Z,7616
2018-04-15T06:25:37.587Z,7744
2018-04-15T06:26:37.632Z,7844
2018-04-15T06:27:37.647Z,7932
2018-04-15T06:28:37.648Z,7984
2018-04-15T06:29:37.611Z,7972
2018-04-15T06:30:37.594Z,7896
2018-04-15T06:31:37.597Z,7820
2018-04-15T06:32:37.718Z,7784
2018-04-15T06:33:37.771Z,7824
2018-04-15T06:34:37.623Z,7940
2018-04-15T06:35:37.713Z,8068
2018-04-15T06:36:37.719Z,8224
2018-04-15T06:37:37.640Z,8376
2018-04-15T06:38:37.718Z,8564
2018-04-15T06:39:37.706Z,8732
2018-04-15T06:40:37.713Z,8868
2018-04-15T06:41:37.677Z,8984
2018-04-15T06:42:37.700Z,9000
2018-04-15T06:43:37.689Z,8992
2018-04-15T06:44:37.695Z,8928
2018-04-15T06:45:37.711Z,8924
2018-04-15T06:46:37.684Z,8980
2018-04-15T06:47:37.656Z,9104
2018-04-15T06:48:37.602Z,9208
2018-04-15T06:49:37.663Z,9364
2018-04-15T06:50:37.684Z,9528
2018-04-15T06:51:37.666Z,9720
2018-04-15T06:52:37.722Z,9892
2018-04-15T06:53:37.681Z,10024
2018-04-15T06:54:37.625Z,10112
2018-04-15T06:55:37.658Z,10156
2018-04-15T06:56:37.698Z,10116
2018-04-15T06:57:37.625Z,10016
2018-04-15T06:58:37.719Z,9828
2018-04-15T06:59:37.699Z,9548
2018-04-15T07:00:37.627Z,9216
2018-04-15T07:01:37.699Z,8944
2018-04-15T07:02:37.663Z,8692
2018-04-15T07:03:37.689Z,8612
2018-04-15T07:04:37.655Z,8804
2018-04-15T07:05:37.696Z,9224
2018-04-15T07:06:37.702Z,9444
2018-04-15T07:07:37.625Z,9324
2018-04-15T07:08:37.625Z,8956
2018-04-15T07:09:37.703Z,8636
2018-04-15T07:10:37.698Z,8596
2018-04-15T07:11:37.704Z,8584
2018-04-15T07:12:37.628Z,8580
2018-04-15T07:13:37.701Z,8576
2018-04-15T07:14:37.630Z,8920
2018-04-15T07:15:37.631Z,8508
2018-04-15T07:16:37.635Z,8236
2018-04-15T07:17:37.703Z,8088
2018-04-15T07:18:37.676Z,7588
2018-04-15T07:19:37.634Z,7480
2018-04-15T07:20:37.632Z,7684
2018-04-15T07:21:37.639Z,8128
2018-04-15T07:22:37.712Z,8852
2018-04-15T07:23:37.635Z,9628
2018-04-15T07:24:37.711Z,10372
2018-04-15T07:25:37.638Z,11120
2018-04-15T07:26:37.661Z,11208
2018-04-15T07:27:37.597Z,10728
2018-04-15T07:28:37.690Z,10292
2018-04-15T07:29:37.602Z,9732
2018-04-15T07:30:37.689Z,9376
2018-04-15T07:31:37.605Z,9232
2018-04-15T07:32:37.670Z,9360
2018-04-15T07:33:37.704Z,9600
2018-04-15T07:34:37.603Z,9592
2018-04-15T07:35:37.718Z,9756
2018-04-15T07:36:37.715Z,10248
2018-04-15T07:37:37.714Z,10624
2018-04-15T07:38:37.717Z,10712
2018-04-15T07:39:37.710Z,10900
2018-04-15T07:40:37.645Z,11000
2018-04-15T07:41:37.685Z,11064
2018-04-15T07:42:37.647Z,11376
2018-04-15T07:43:37.651Z,11476
2018-04-15T07:44:37.719Z,11644
2018-04-15T07:45:37.688Z,12204
2018-04-15T07:46:37.753Z,12828
2018-04-15T07:47:37.760Z,13068
2018-04-15T07:48:37.680Z,13348
2018-04-15T07:49:37.719Z,13592
2018-04-15T07:50:37.778Z,13868
2018-04-15T07:51:37.684Z,13952
2018-04-15T07:52:37.626Z,13928
2018-04-15T07:53:37.764Z,14016
2018-04-15T07:54:37.724Z,14496
2018-04-15T07:55:37.729Z,15248
2018-04-15T07:56:37.724Z,16476
2018-04-15T07:57:37.632Z,17720
2018-04-15T07:58:37.786Z,19252
2018-04-15T07:59:37.749Z,20628
2018-04-15T08:00:37.787Z,22368
2018-04-15T08:01:37.695Z,23520
2018-04-15T08:02:37.770Z,24320
2018-04-15T08:03:37.703Z,24672
2018-04-15T08:04:37.699Z,24448
2018-04-15T08:05:37.668Z,23840
2018-04-15T08:06:37.661Z,23200
2018-04-15T08:07:37.763Z,22208
2018-04-15T08:08:37.679Z,20820
2018-04-15T08:09:37.739Z,19744
2018-04-15T08:10:37.666Z,19376
2018-04-15T08:11:37.717Z,19052
2018-04-15T08:12:37.666Z,19360
2018-04-15T08:13:37.678Z,20736
2018-04-15T08:14:37.668Z,23680
2018-04-15T08:15:37.740Z,26624
2018-04-15T08:16:37.668Z,28896
2018-04-15T08:17:37.627Z,30784
2018-04-15T08:18:37.726Z,32544
2018-04-15T08:19:37.742Z,33856
2018-04-15T08:20:37.744Z,34176
2018-04-15T08:21:37.673Z,34400
2018-04-15T08:22:37.746Z,35136
2018-04-15T08:23:37.675Z,36768
2018-04-15T08:24:37.677Z,38496
2018-04-15T08:25:37.669Z,39488
2018-04-15T08:26:37.702Z,39424
2018-04-15T08:27:37.708Z,39104
2018-04-15T08:28:37.699Z,39872
2018-04-15T08:29:37.746Z,42144
2018-04-15T08:30:37.669Z,44160
2018-04-15T08:31:37.887Z,42752
2018-04-15T08:32:37.650Z,40544
2018-04-15T08:33:37.652Z,38656
2018-04-15T08:34:37.751Z,38432
2018-04-15T08:35:37.807Z,40096
2018-04-15T08:36:37.774Z,43232
2018-04-15T08:37:37.727Z,45408
2018-04-15T08:38:37.732Z,43904
2018-04-15T08:39:37.759Z,40736
2018-04-15T08:40:37.669Z,37760
2018-04-15T08:41:37.718Z,34752
2018-04-15T08:42:37.753Z,33280
2018-04-15T08:43:37.719Z,32480
2018-04-15T08:44:37.725Z,31776
2018-04-15T08:45:37.726Z,31328
2018-04-15T08:46:37.674Z,32192
2018-04-15T08:47:37.701Z,33984
2018-04-15T08:48:37.762Z,35552
2018-04-15T08:49:37.756Z,36256
2018-04-15T08:50:37.758Z,36448
2018-04-15T08:51:37.799Z,36128
2018-04-15T08:52:37.729Z,35328
2018-04-15T08:53:37.841Z,35008
2018-04-15T08:54:37.767Z,35072
2018-04-15T08:55:37.764Z,35488
2018-04-15T08:56:37.764Z,37056
2018-04-15T08:57:37.703Z,37952
2018-04-15T08:58:37.771Z,37504
2018-04-15T08:59:37.693Z,36864
2018-04-15T09:00:37.816Z,36768
2018-04-15T09:01:37.700Z,34272
2018-04-15T09:02:37.695Z,33792
2018-04-15T09:03:37.700Z,34144
2018-04-15T09:04:37.700Z,35552
2018-04-15T09:05:37.731Z,38112
2018-04-15T09:06:37.793Z,40544
2018-04-15T09:07:37.742Z,44096
2018-04-15T09:08:37.744Z,47392
2018-04-15T09:09:37.745Z,49696
2018-04-15T09:10:37.709Z,51904
2018-04-15T09:11:37.751Z,54080
2018-04-15T09:12:37.796Z,55840
2018-04-15T09:13:37.728Z,55808
2018-04-15T09:14:37.810Z,55552
2018-04-15T09:15:37.696Z,55040
2018-04-15T09:16:37.807Z,54560
2018-04-15T09:17:37.782Z,54080
2018-04-15T09:18:37.715Z,54272
2018-04-15T09:19:37.777Z,55168
2018-04-15T09:20:37.800Z,56704
2018-04-15T09:21:37.777Z,59872
2018-04-15T09:22:37.743Z,61152
2018-04-15T09:23:37.820Z,66592
2018-04-15T09:24:37.760Z,71424
2018-04-15T09:25:37.786Z,77952
2018-04-15T09:26:37.787Z,86176
2018-04-15T09:27:37.786Z,90720
2018-04-15T09:28:37.786Z,93952
2018-04-15T09:29:37.757Z,77536
2018-04-15T09:30:37.712Z,74080
2018-04-15T09:31:37.787Z,73632
2018-04-15T09:32:37.720Z,78944
2018-04-15T09:33:37.720Z,98592
2018-04-15T09:34:37.716Z,62176
2018-04-15T09:35:37.884Z,77792
2018-04-15T09:36:37.766Z,55840
2018-04-15T09:37:37.809Z,56416
2018-04-15T09:38:37.757Z,67776
2018-04-15T09:39:37.707Z,80096
2018-04-15T09:40:37.765Z,116032
2018-04-15T09:41:37.761Z,105280
2018-04-15T09:42:37.767Z,81664
2018-04-15T09:43:37.758Z,113632
2018-04-15T09:44:37.797Z,85504
2018-04-15T09:45:37.786Z,166656
2018-04-15T09:46:37.721Z,174176
2018-04-15T09:47:37.700Z,89888
2018-04-15T09:48:37.713Z,76544
2018-04-15T09:49:37.757Z,81920
2018-04-15T09:50:37.792Z,76480
2018-04-15T09:51:37.700Z,86528
2018-04-15T09:52:37.728Z,82368
2018-04-15T09:53:37.794Z,76064
2018-04-15T09:54:37.788Z,61088
2018-04-15T09:55:37.798Z,65184
2018-04-15T09:56:37.764Z,58304
2018-04-15T09:57:37.812Z,50112
2018-04-15T09:58:37.839Z,61024
2018-04-15T09:59:37.786Z,50176
2018-04-15T10:00:37.699Z,43680
2018-04-15T10:01:37.832Z,46656
2018-04-15T10:02:37.770Z,65824
2018-04-15T10:03:37.747Z,112096
2018-04-15T10:04:37.822Z,88640
2018-04-15T10:05:37.765Z,82336
2018-04-15T10:06:37.796Z,85088
2018-04-15T10:07:37.721Z,112928
2018-04-15T10:08:37.737Z,153824
2018-04-15T10:09:37.696Z,141856
2018-04-15T10:10:37.716Z,153568
2018-04-15T10:11:37.729Z,73952
2018-04-15T10:13:37.754Z,149248
2018-04-15T10:14:37.803Z,139808
2018-04-15T10:15:37.770Z,150848
2018-04-15T10:16:37.730Z,148512
2018-04-15T10:17:37.806Z,81952
2018-04-15T10:18:37.804Z,90528
2018-04-15T10:19:37.705Z,59424
2018-04-15T10:20:37.730Z,66976
2018-04-15T10:21:37.809Z,75840
2018-04-15T10:22:37.807Z,60864
2018-04-15T10:23:37.703Z,53856
2018-04-15T10:24:37.735Z,56032
2018-04-15T10:25:37.690Z,56576
2018-04-15T10:26:37.773Z,57760
2018-04-15T10:27:37.809Z,60096
2018-04-15T10:28:37.832Z,63872
2018-04-15T10:29:37.813Z,68448
2018-04-15T10:30:37.712Z,72288
2018-04-15T10:31:37.813Z,76864
2018-04-15T10:32:37.808Z,80576
2018-04-15T10:33:37.692Z,80864
2018-04-15T10:34:37.757Z,83296
2018-04-15T10:35:37.803Z,113888
2018-04-15T10:36:37.850Z,92704
2018-04-15T10:37:37.751Z,88832
2018-04-15T10:38:37.743Z,83552
2018-04-15T10:39:37.835Z,83168
2018-04-15T10:40:37.765Z,70688
2018-04-15T10:41:37.851Z,65120
2018-04-15T10:42:37.744Z,63168
2018-04-15T10:43:37.827Z,63680
2018-04-15T10:44:37.797Z,65504
2018-04-15T10:45:37.719Z,66080
2018-04-15T10:46:37.763Z,67392
2018-04-15T10:47:37.765Z,68608
2018-04-15T10:48:37.764Z,72384
2018-04-15T10:49:37.784Z,79264
2018-04-15T10:50:37.837Z,88064
2018-04-15T10:51:37.765Z,77216
2018-04-15T10:52:37.837Z,65344
2018-04-15T10:53:37.770Z,58624
2018-04-15T10:54:37.872Z,54624
2018-04-15T10:55:37.810Z,54048
2018-04-15T10:56:37.796Z,55232
2018-04-15T10:57:37.806Z,57184
2018-04-15T10:58:37.873Z,60480
2018-04-15T10:59:37.873Z,66944
2018-04-15T11:00:37.765Z,77600
2018-04-15T11:01:37.741Z,135584
2018-04-15T11:02:37.820Z,111136
2018-04-15T11:03:37.763Z,104896
2018-04-15T11:04:37.745Z,158208
2018-04-15T11:05:37.813Z,168352
2018-04-15T11:06:37.770Z,132192
2018-04-15T11:07:37.864Z,196576
2018-04-15T11:08:37.896Z,108192
2018-04-15T11:09:37.773Z,147744
2018-04-15T11:10:37.872Z,135712
2018-04-15T11:11:37.822Z,174272
2018-04-15T11:12:37.848Z,172768
2018-04-15T11:13:37.854Z,169792
2018-04-15T11:14:37.874Z,169728
2018-04-15T11:15:37.853Z,161696
2018-04-15T11:16:37.781Z,159008
2018-04-15T11:17:37.861Z,151296
2018-04-15T11:18:37.791Z,150208
2018-04-15T11:19:37.782Z,147072
2018-04-15T11:20:37.787Z,148416
2018-04-15T11:21:37.857Z,145632
2018-04-15T11:22:37.787Z,144128
2018-04-15T11:23:37.752Z,141696
2018-04-15T11:24:37.858Z,142528
2018-04-15T11:25:37.802Z,140800
2018-04-15T11:26:37.885Z,143296
2018-04-15T11:27:37.883Z,139904
2018-04-15T11:28:37.890Z,136384
2018-04-15T11:29:37.851Z,137632
2018-04-15T11:30:37.859Z,135712
2018-04-15T11:31:37.815Z,133856
2018-04-15T11:32:37.857Z,133632
2018-04-15T11:33:37.836Z,133696
2018-04-15T11:34:37.779Z,137568
2018-04-15T11:35:37.795Z,137568
2018-04-15T11:36:37.913Z,137664
2018-04-15T11:37:37.870Z,141056
2018-04-15T11:38:37.797Z,139904
2018-04-15T11:39:37.867Z,139200
2018-04-15T11:40:37.796Z,140512
2018-04-15T11:41:37.860Z,140384
2018-04-15T11:42:37.798Z,142240
2018-04-15T11:43:37.880Z,144256
2018-04-15T11:44:37.868Z,143264
2018-04-15T11:45:37.802Z,141024
2018-04-15T11:46:37.853Z,140192
2018-04-15T11:47:37.852Z,138112
2018-04-15T11:48:37.847Z,136224
2018-04-15T11:49:37.743Z,132480
2018-04-15T11:50:37.854Z,135968
2018-04-15T11:51:37.844Z,140608
2018-04-15T11:52:37.761Z,138144
2018-04-15T11:53:37.760Z,138272
2018-04-15T11:54:37.734Z,139264
2018-04-15T11:55:37.774Z,136064
2018-04-15T11:56:37.833Z,132128
2018-04-15T11:57:37.827Z,135840
2018-04-15T11:58:37.909Z,135872
2018-04-15T11:59:37.797Z,133696
2018-04-15T12:00:37.899Z,134560
2018-04-15T12:01:37.834Z,132928
2018-04-15T12:02:37.918Z,134592
2018-04-15T12:03:37.836Z,129920
2018-04-15T12:04:37.912Z,130944
2018-04-15T12:05:37.836Z,130400
2018-04-15T12:06:37.845Z,132800
2018-04-15T12:07:37.834Z,133472
2018-04-15T12:08:37.909Z,131136
2018-04-15T12:09:37.960Z,129504
2018-04-15T12:10:37.901Z,131552
2018-04-15T12:11:37.895Z,131072
2018-04-15T12:12:37.883Z,134080
2018-04-15T12:13:37.788Z,133504
2018-04-15T12:14:37.901Z,138560
2018-04-15T12:15:37.852Z,138336
2018-04-15T12:16:37.847Z,137760
2018-04-15T12:17:37.909Z,134016
2018-04-15T12:18:37.852Z,138272
2018-04-15T12:19:37.881Z,134336
2018-04-15T12:20:37.889Z,138016
2018-04-15T12:21:37.919Z,122688
2018-04-15T12:22:37.849Z,136320
2018-04-15T12:23:37.891Z,53984
2018-04-15T12:24:37.911Z,48448
2018-04-15T12:25:37.919Z,107648
2018-04-15T12:26:37.855Z,136544
2018-04-15T12:27:37.850Z,137792
2018-04-15T12:28:37.854Z,133504
2018-04-15T12:29:37.896Z,132096
2018-04-15T12:30:37.927Z,134528
2018-04-15T12:31:37.871Z,54048
2018-04-15T12:32:37.919Z,131872
2018-04-15T12:33:37.991Z,54272
2018-04-15T12:34:37.810Z,100096
2018-04-15T12:35:37.918Z,144896
2018-04-15T12:36:37.898Z,145888
2018-04-15T12:37:37.803Z,144480
2018-04-15T12:38:37.926Z,140448
2018-04-15T12:39:37.938Z,142784
2018-04-15T12:40:37.822Z,137568
2018-04-15T12:41:37.868Z,135456
2018-04-15T12:42:37.829Z,137792
2018-04-15T12:43:37.933Z,74752
2018-04-15T12:44:37.884Z,134016
2018-04-15T12:45:37.841Z,116000
2018-04-15T12:46:37.912Z,73376
2018-04-15T12:47:37.840Z,137408
2018-04-15T12:48:37.915Z,128608
2018-04-15T12:49:37.841Z,107392
2018-04-15T12:50:37.867Z,52256
2018-04-15T12:51:37.842Z,119840
2018-04-15T12:52:37.845Z,46432
2018-04-15T12:53:37.998Z,45440
2018-04-15T12:54:37.920Z,45984
2018-04-15T12:55:37.849Z,62688
2018-04-15T12:56:37.870Z,142432
2018-04-15T12:57:37.937Z,135200
2018-04-15T12:58:37.940Z,139392
2018-04-15T12:59:37.988Z,134368
2018-04-15T13:00:37.880Z,127872
2018-04-15T13:01:37.998Z,127392
2018-04-15T13:02:37.947Z,63008
2018-04-15T13:03:37.915Z,63968
2018-04-15T13:04:37.962Z,98528
2018-04-15T13:05:37.877Z,50848
2018-04-15T13:06:37.883Z,44768
2018-04-15T13:07:37.842Z,47264
2018-04-15T13:08:37.979Z,76224
2018-04-15T13:09:37.897Z,114688
2018-04-15T13:10:37.948Z,122688
2018-04-15T13:11:37.894Z,128224
2018-04-15T13:12:37.824Z,130304
2018-04-15T13:13:37.945Z,136512
2018-04-15T13:14:37.942Z,135584
2018-04-15T13:15:37.964Z,131488
2018-04-15T13:16:37.857Z,132832
2018-04-15T13:17:37.862Z,130752
2018-04-15T13:18:37.929Z,130176
2018-04-15T13:19:37.926Z,129952
2018-04-15T13:20:37.864Z,129056
2018-04-15T13:21:37.864Z,126208
2018-04-15T13:22:37.865Z,121152
2018-04-15T13:23:37.929Z,125696
2018-04-15T13:24:37.863Z,122848
2018-04-15T13:25:37.932Z,64192
2018-04-15T13:26:37.853Z,126720
2018-04-15T13:27:37.971Z,127520
2018-04-15T13:28:37.935Z,131488
2018-04-15T13:29:37.969Z,126912